Time;durP1;ratioP1;P1;durP2;ratioP2;P2;SDS_P1;SDS_P2;PMS_P1;PMS_P2;Temp;Humidity;BMP_temperature;BMP_pressure;BME280_temperature;BME280_humidity;BME280_pressure;Samples;Min_cycle;Max_cycle;Signal;HPM_P1;HPM_P2
2022/03/27 00:00:13;;;;;;;25.80;11.37;;;;;;;5.74;53.96;96690.63;6071442;23;20192;-81
2022/03/27 00:02:40;;;;;;;24.63;11.07;;;;;;;5.78;53.94;96692.94;6050075;23;20211;-80
2022/03/27 00:05:06;;;;;;;22.27;12.00;;;;;;;5.75;54.00;96684.56;6073254;23;20204;-80
2022/03/27 00:07:31;;;;;;;24.60;10.63;;;;;;;5.73;54.12;96689.78;6095825;23;20639;-80
2022/03/27 00:09:57;;;;;;;21.23;10.37;;;;;;;5.78;53.69;96681.81;6070656;23;20168;-81
2022/03/27 00:12:22;;;;;;;22.17;11.27;;;;;;;5.82;53.73;96684.09;6070025;23;20160;-80
2022/03/27 00:14:47;;;;;;;20.03;10.37;;;;;;;5.80;53.83;96685.94;6069366;23;20211;-80
2022/03/27 00:17:13;;;;;;;20.73;10.57;;;;;;;5.93;54.07;96683.50;6046776;23;20632;-80
2022/03/27 00:19:38;;;;;;;24.27;11.20;;;;;;;6.04;53.14;96677.72;6071161;23;20164;-79
2022/03/27 00:22:05;;;;;;;26.63;11.33;;;;;;;6.07;52.86;96680.09;6046064;23;20168;-80
2022/03/27 00:24:30;;;;;;;24.33;10.77;;;;;;;6.03;52.92;96681.22;6047118;23;20191;-80
2022/03/27 00:26:56;;;;;;;25.70;11.03;;;;;;;5.96;53.76;96680.75;6096699;23;20148;-81
2022/03/27 00:29:22;;;;;;;22.87;11.50;;;;;;;5.91;54.05;96675.03;6096341;23;20159;-80
2022/03/27 00:31:47;;;;;;;20.23;10.80;;;;;;;5.82;53.95;96673.78;6070322;23;20159;-80
2022/03/27 00:34:13;;;;;;;23.50;11.57;;;;;;;5.79;54.25;96678.31;6046669;23;20267;-80
2022/03/27 00:36:38;;;;;;;23.27;11.20;;;;;;;5.80;54.07;96670.47;6046704;23;20227;-80
2022/03/27 00:39:03;;;;;;;21.10;10.87;;;;;;;5.75;54.29;96671.69;6071313;23;20160;-80
2022/03/27 00:41:30;;;;;;;22.13;11.53;;;;;;;5.82;54.46;96667.81;6070577;23;20152;-80
2022/03/27 00:43:56;;;;;;;24.20;10.30;;;;;;;5.72;54.77;96666.69;6096419;23;20658;-80
2022/03/27 00:46:21;;;;;;;20.87;11.00;;;;;;;5.63;54.66;96674.03;6047192;23;20184;-81
2022/03/27 00:48:46;;;;;;;21.57;11.20;;;;;;;5.61;55.20;96675.06;6070603;23;20157;-81
2022/03/27 00:51:12;;;;;;;22.37;11.40;;;;;;;5.47;55.78;96667.28;6046447;23;20163;-81
2022/03/27 00:53:37;;;;;;;23.37;10.87;;;;;;;5.48;55.76;96668.94;6096407;23;20259;-80
2022/03/27 00:56:02;;;;;;;21.93;11.33;;;;;;;5.43;55.87;96670.97;6047115;23;20188;-81
2022/03/27 00:58:28;;;;;;;19.50;10.80;;;;;;;5.37;55.91;96662.69;6096708;23;20158;-80
2022/03/27 01:01:11;;;;;;;24.67;10.70;;;;;;;5.47;55.83;96669.88;6047393;23;20156;-81
2022/03/27 01:03:37;;;;;;;20.63;11.17;;;;;;;5.44;56.24;96665.72;6070754;23;20547;-81
2022/03/27 01:06:02;;;;;;;22.63;10.30;;;;;;;5.36;56.05;96663.59;6047696;23;20177;-81
2022/03/27 01:11:19;;;;;;;23.40;10.80;;;;;;;5.32;56.27;96659.56;6074803;23;20200;-81
2022/03/27 01:13:49;;;;;;;17.57;10.83;;;;;;;5.27;56.75;96653.81;6047451;23;20187;-80
2022/03/27 01:16:32;;;;;;;19.30;11.23;;;;;;;5.29;56.78;96651.16;6051451;23;20180;-80
2022/03/27 01:19:00;;;;;;;25.37;11.17;;;;;;;5.24;56.91;96650.59;6075328;23;20163;-81
2022/03/27 01:21:25;;;;;;;22.40;11.10;;;;;;;5.24;56.87;96650.59;6052079;23;20160;-82
2022/03/27 01:23:51;;;;;;;27.67;12.10;;;;;;;5.21;57.02;96651.63;6075381;23;20187;-81
2022/03/27 01:26:18;;;;;;;19.53;11.23;;;;;;;5.18;57.28;96646.63;6076009;23;20848;-81
2022/03/27 01:28:43;;;;;;;22.77;11.23;;;;;;;5.23;57.57;96642.06;6073053;23;20157;-80
2022/03/27 01:31:09;;;;;;;20.20;11.20;;;;;;;5.22;57.79;96648.13;6048181;23;20454;-79
2022/03/27 01:33:34;;;;;;;19.53;10.77;;;;;;;5.28;57.54;96644.34;6071745;23;20211;-80
2022/03/27 01:35:59;;;;;;;21.60;11.73;;;;;;;5.36;57.08;96639.59;6072112;23;20172;-79
2022/03/27 01:38:25;;;;;;;23.97;11.77;;;;;;;5.46;56.62;96645.84;6072349;23;20163;-79
2022/03/27 01:40:51;;;;;;;26.07;11.33;;;;;;;5.43;56.49;96640.06;6048235;23;20168;-80
2022/03/27 01:43:17;;;;;;;24.97;12.90;;;;;;;5.48;56.62;96645.75;6072186;23;20245;-80
2022/03/27 01:45:42;;;;;;;20.77;11.10;;;;;;;5.54;56.68;96638.50;6048392;23;20176;-79
2022/03/27 01:48:07;;;;;;;23.47;12.20;;;;;;;5.57;56.18;96642.69;6047901;23;20164;-80
2022/03/27 01:50:33;;;;;;;24.57;12.23;;;;;;;5.62;56.04;96636.31;6097504;23;20200;-79
2022/03/27 01:52:58;;;;;;;23.40;12.50;;;;;;;5.71;55.50;96629.78;6071722;23;20184;-79
2022/03/27 01:55:24;;;;;;;24.03;11.80;;;;;;;5.73;55.80;96634.84;6047873;23;20224;-79
2022/03/27 01:57:49;;;;;;;22.73;11.87;;;;;;;5.81;55.33;96632.63;6048590;23;20243;-78
2022/03/27 02:00:14;;;;;;;22.43;12.53;;;;;;;5.83;55.31;96634.22;6097576;23;20156;-78
2022/03/27 02:02:40;;;;;;;25.07;12.63;;;;;;;5.90;55.65;96640.69;6097160;23;20161;-79
2022/03/27 02:05:06;;;;;;;26.73;11.13;;;;;;;5.93;55.31;96635.34;6048863;23;20206;-79
2022/03/27 02:07:38;;;;;;;20.17;11.00;;;;;;;6.01;55.04;96637.47;6071901;23;20186;-80
2022/03/27 02:10:05;;;;;;;23.43;12.57;;;;;;;6.00;54.86;96637.53;6096048;23;20243;-79
2022/03/27 02:12:34;;;;;;;20.27;11.97;;;;;;;6.03;55.23;96639.97;6047379;23;20527;-80
2022/03/27 02:14:59;;;;;;;27.63;12.00;;;;;;;6.05;54.76;96635.53;6048637;23;20267;-80
2022/03/27 02:17:24;;;;;;;23.83;12.67;;;;;;;6.00;54.98;96634.97;6072750;23;20173;-81
2022/03/27 02:19:50;;;;;;;25.67;12.43;;;;;;;5.97;55.11;96636.81;6072316;23;20155;-80
2022/03/27 02:22:15;;;;;;;25.07;12.77;;;;;;;5.82;55.78;96631.72;6096895;23;20153;-81
2022/03/27 02:24:40;;;;;;;23.63;12.40;;;;;;;5.81;56.14;96636.03;6048311;23;20184;-79
2022/03/27 02:27:05;;;;;;;25.00;12.43;;;;;;;5.97;55.69;96636.81;6072557;23;20180;-80
2022/03/27 02:29:32;;;;;;;27.20;12.33;;;;;;;5.99;55.79;96633.31;6071629;23;20607;-80
2022/03/27 02:31:57;;;;;;;23.97;12.63;;;;;;;6.03;55.31;96635.63;6071125;23;20161;-79
2022/03/27 02:34:22;;;;;;;25.30;12.77;;;;;;;5.92;55.91;96633.69;6072030;23;20180;-80
2022/03/27 02:36:48;;;;;;;21.27;12.13;;;;;;;6.06;55.36;96634.59;6072599;23;20599;-81
2022/03/27 02:39:13;;;;;;;26.00;12.67;;;;;;;6.06;55.22;96632.84;6048649;23;20211;-81
2022/03/27 02:41:38;;;;;;;23.20;12.43;;;;;;;6.02;55.53;96633.97;6071068;23;20157;-80
2022/03/27 02:44:04;;;;;;;19.57;11.03;;;;;;;6.01;54.95;96634.03;6048020;23;20161;-80
2022/03/27 02:46:29;;;;;;;23.83;13.33;;;;;;;5.87;55.72;96627.94;6047474;23;20678;-80
2022/03/27 02:48:54;;;;;;;24.50;12.87;;;;;;;5.83;55.78;96625.63;6071953;23;20153;-80
2022/03/27 02:51:20;;;;;;;19.57;12.10;;;;;;;5.69;56.15;96627.31;6071323;23;20157;-79
2022/03/27 02:53:45;;;;;;;26.60;12.57;;;;;;;5.73;56.80;96632.25;6047582;23;20188;-80
2022/03/27 02:56:10;;;;;;;25.57;14.07;;;;;;;5.58;56.88;96628.88;6071627;23;20527;-80
2022/03/27 02:58:36;;;;;;;20.93;12.17;;;;;;;5.50;57.59;96631.06;6047124;23;20156;-79
2022/03/27 03:01:02;;;;;;;31.10;14.20;;;;;;;5.42;58.11;96631.50;6047445;23;20666;-79
2022/03/27 03:03:28;;;;;;;22.83;11.93;;;;;;;5.30;57.87;96625.34;6096398;23;20157;-80
2022/03/27 03:05:54;;;;;;;22.13;12.60;;;;;;;5.24;58.20;96630.84;6071527;23;20187;-79
2022/03/27 03:08:19;;;;;;;22.87;12.33;;;;;;;5.18;58.71;96630.34;6071517;23;20599;-79
2022/03/27 03:10:45;;;;;;;24.77;12.87;;;;;;;5.04;58.95;96628.59;6047564;23;20219;-80
2022/03/27 03:13:10;;;;;;;26.33;12.67;;;;;;;4.93;59.45;96626.59;6045334;23;20195;-79
2022/03/27 03:15:41;;;;;;;23.53;12.70;;;;;;;4.89;59.68;96624.28;6071245;23;20172;-80
2022/03/27 03:18:09;;;;;;;20.73;11.90;;;;;;;4.83;60.32;96628.84;6047750;23;20176;-80
2022/03/27 03:20:34;;;;;;;27.03;12.07;;;;;;;4.78;60.87;96623.16;6086764;23;20160;-78
2022/03/27 03:23:00;;;;;;;22.40;12.10;;;;;;;4.77;60.95;96628.38;6065437;23;20163;-79
2022/03/27 03:25:25;;;;;;;20.80;12.47;;;;;;;4.71;61.09;96626.97;6116072;23;20184;-81
2022/03/27 03:27:50;;;;;;;22.83;12.70;;;;;;;4.68;61.14;96636.59;6090671;23;20172;-80
2022/03/27 03:30:17;;;;;;;23.73;12.17;;;;;;;4.62;61.31;96630.06;6091976;23;20167;-80
2022/03/27 03:32:43;;;;;;;27.63;12.10;;;;;;;4.65;61.67;96632.47;6065640;23;20252;-80
2022/03/27 03:35:08;;;;;;;24.80;13.50;;;;;;;4.66;61.58;96630.72;6065021;23;20609;-80
2022/03/27 03:37:34;;;;;;;27.07;13.23;;;;;;;4.69;61.56;96633.97;6085008;23;20240;-81
2022/03/27 03:39:59;;;;;;;22.67;11.80;;;;;;;4.59;61.57;96632.78;6073293;23;20161;-81
2022/03/27 03:42:25;;;;;;;22.30;11.70;;;;;;;4.57;61.91;96632.03;6071836;23;20164;-82
2022/03/27 03:44:50;;;;;;;21.07;12.17;;;;;;;4.64;61.52;96630.81;6048996;23;20180;-81
2022/03/27 03:47:15;;;;;;;23.10;11.97;;;;;;;4.63;61.57;96629.16;6072588;23;20210;-80
2022/03/27 03:49:41;;;;;;;25.17;12.60;;;;;;;4.65;61.86;96632.47;6072915;23;20165;-80
2022/03/27 03:52:07;;;;;;;23.13;12.17;;;;;;;4.64;61.48;96635.13;6047952;23;20630;-79
2022/03/27 03:54:32;;;;;;;27.80;12.60;;;;;;;4.60;61.82;96628.50;6072863;23;20192;-80
2022/03/27 03:56:58;;;;;;;24.03;12.67;;;;;;;4.55;61.57;96621.03;6072703;23;20238;-79
2022/03/27 03:59:23;;;;;;;25.50;12.40;;;;;;;4.52;61.72;96623.78;6072968;23;20232;-79
2022/03/27 04:01:48;;;;;;;25.10;11.93;;;;;;;4.51;62.06;96624.69;6048050;23;20165;-80
2022/03/27 04:04:14;;;;;;;23.97;11.17;;;;;;;4.50;62.14;96625.56;6072197;23;20168;-80
2022/03/27 04:06:39;;;;;;;26.67;12.10;;;;;;;4.45;62.49;96625.84;6048593;23;20164;-79
2022/03/27 04:09:04;;;;;;;25.07;12.13;;;;;;;4.43;62.37;96634.56;6048852;23;20599;-81
2022/03/27 04:11:29;;;;;;;21.13;11.17;;;;;;;4.38;62.58;96629.66;6048016;23;20165;-81
2022/03/27 04:13:55;;;;;;;23.53;12.47;;;;;;;4.38;62.66;96628.84;6097198;23;20180;-80
2022/03/27 04:16:20;;;;;;;23.93;12.47;;;;;;;4.31;62.91;96633.47;6048502;23;20195;-81
2022/03/27 04:18:47;;;;;;;24.77;12.00;;;;;;;4.28;62.99;96625.09;6048311;23;20505;-81
2022/03/27 04:21:12;;;;;;;25.43;12.63;;;;;;;4.28;63.47;96623.34;6071497;23;20607;-80
2022/03/27 04:23:37;;;;;;;24.80;12.57;;;;;;;4.26;63.34;96620.03;6048454;23;20169;-80
2022/03/27 04:26:03;;;;;;;21.67;12.07;;;;;;;4.23;63.61;96625.34;6072439;23;20176;-79
2022/03/27 04:28:29;;;;;;;24.97;12.13;;;;;;;4.20;63.78;96628.91;6072819;23;20161;-82
2022/03/27 04:30:54;;;;;;;23.07;11.03;;;;;;;4.22;63.50;96624.50;6048203;23;20188;-80
2022/03/27 04:33:19;;;;;;;19.00;11.03;;;;;;;4.21;63.64;96630.56;6071282;23;20216;-79
2022/03/27 04:35:45;;;;;;;23.83;12.23;;;;;;;4.27;63.16;96626.84;6072112;23;20607;-80
2022/03/27 04:38:11;;;;;;;27.30;12.63;;;;;;;4.26;63.10;96636.31;6047760;23;20188;-80
2022/03/27 04:40:36;;;;;;;21.43;11.63;;;;;;;4.22;63.05;96632.22;6071695;23;20212;-80
2022/03/27 04:43:02;;;;;;;23.93;11.50;;;;;;;4.16;62.95;96635.13;6071384;23;20227;-80
2022/03/27 04:45:27;;;;;;;21.03;11.10;;;;;;;4.13;63.65;96635.28;6071667;23;20176;-81
2022/03/27 04:47:52;;;;;;;21.40;11.70;;;;;;;4.08;63.57;96631.31;6048562;23;20175;-79
2022/03/27 04:50:18;;;;;;;24.30;11.83;;;;;;;4.05;63.96;96634.03;6049715;23;20614;-81
2022/03/27 04:52:43;;;;;;;21.67;11.90;;;;;;;4.07;64.09;96635.63;6048770;23;20180;-80
2022/03/27 04:55:09;;;;;;;20.87;11.30;;;;;;;4.02;64.08;96631.63;6049129;23;20198;-80
2022/03/27 04:57:39;;;;;;;20.30;11.13;;;;;;;4.00;64.58;96639.44;6049489;23;20231;-82
2022/03/27 05:00:10;;;;;;;24.33;11.40;;;;;;;4.00;64.45;96631.72;6073374;23;20212;-80
2022/03/27 05:02:36;;;;;;;21.23;11.77;;;;;;;4.03;64.58;96636.69;6073371;23;20138;-80
2022/03/27 05:05:04;;;;;;;24.80;11.87;;;;;;;3.96;64.69;96633.59;6049248;23;20206;-80
2022/03/27 05:07:29;;;;;;;27.60;12.37;;;;;;;3.99;64.46;96637.78;6074153;23;20160;-80
2022/03/27 05:09:54;;;;;;;19.40;10.83;;;;;;;3.96;64.63;96635.34;6049507;23;20691;-80
2022/03/27 05:12:20;;;;;;;23.93;11.97;;;;;;;3.95;65.05;96636.25;6073351;23;20611;-81
2022/03/27 05:14:45;;;;;;;20.13;11.07;;;;;;;3.94;64.98;96640.56;6048128;23;20180;-81
2022/03/27 05:17:10;;;;;;;19.10;10.90;;;;;;;3.94;65.36;96640.56;6049766;23;20662;-80
2022/03/27 05:19:36;;;;;;;23.97;12.60;;;;;;;4.01;65.28;96635.94;6073674;23;20215;-80
2022/03/27 05:22:01;;;;;;;24.33;11.53;;;;;;;4.04;64.85;96633.19;6048593;23;20615;-80
2022/03/27 05:24:28;;;;;;;19.73;11.43;;;;;;;4.11;64.63;96638.84;6098494;23;20610;-79
2022/03/27 05:26:53;;;;;;;22.87;11.90;;;;;;;4.26;64.23;96628.59;6073517;23;20233;-80
2022/03/27 05:29:19;;;;;;;22.40;11.07;;;;;;;4.38;63.71;96639.13;6049102;23;20207;-80
2022/03/27 05:31:45;;;;;;;20.87;10.90;;;;;;;4.43;63.85;96625.09;6047935;23;20160;-80
2022/03/27 05:34:10;;;;;;;22.53;10.10;;;;;;;4.54;63.08;96627.09;6073011;23;20184;-80
2022/03/27 05:36:36;;;;;;;20.43;11.47;;;;;;;4.55;63.38;96636.44;6048596;23;20501;-79
2022/03/27 05:39:01;;;;;;;19.10;11.03;;;;;;;4.60;63.34;96634.47;6073860;23;20207;-81
2022/03/27 05:41:26;;;;;;;21.53;11.47;;;;;;;4.64;62.99;96641.09;6052044;23;20160;-81
2022/03/27 05:43:51;;;;;;;22.97;12.17;;;;;;;4.68;62.65;96634.88;6053618;23;20640;-81
2022/03/27 05:46:17;;;;;;;30.37;11.17;;;;;;;4.71;62.91;96633.88;6054083;23;20207;-81
2022/03/27 05:48:42;;;;;;;20.83;11.33;;;;;;;4.78;62.52;96638.59;6080165;23;20488;-81
2022/03/27 05:51:07;;;;;;;19.97;10.77;;;;;;;4.91;61.99;96646.44;6102943;23;20157;-81
2022/03/27 05:53:33;;;;;;;20.93;11.30;;;;;;;5.06;61.93;96642.19;6054841;23;20199;-81
2022/03/27 05:55:59;;;;;;;22.87;12.33;;;;;;;5.18;61.27;96651.78;6054817;23;20200;-82
2022/03/27 05:58:24;;;;;;;20.23;10.73;;;;;;;5.27;61.04;96655.56;6078447;23;20172;-82
2022/03/27 06:00:51;;;;;;;21.97;11.73;;;;;;;5.35;60.57;96653.38;6057091;23;20179;-80
2022/03/27 06:03:17;;;;;;;20.20;11.00;;;;;;;5.45;60.22;96658.84;6081949;23;20153;-81
2022/03/27 06:05:42;;;;;;;25.57;11.00;;;;;;;5.65;59.40;96661.06;6106675;23;20311;-81
2022/03/27 06:08:07;;;;;;;20.27;11.80;;;;;;;5.73;59.14;96664.03;6076767;23;20653;-82
2022/03/27 06:10:34;;;;;;;20.43;12.10;;;;;;;5.83;59.22;96662.59;6056040;23;20175;-81
2022/03/27 06:13:00;;;;;;;22.00;11.43;;;;;;;5.88;58.42;96663.13;6078103;23;20247;-81
2022/03/27 06:15:27;;;;;;;21.37;10.87;;;;;;;6.00;58.36;96665.91;6055072;23;20207;-82
2022/03/27 06:17:53;;;;;;;24.30;12.43;;;;;;;6.06;58.18;96663.78;6078916;23;20156;-80
2022/03/27 06:20:21;;;;;;;23.97;11.20;;;;;;;6.17;58.00;96670.88;6079061;23;20681;-81
2022/03/27 06:22:46;;;;;;;26.17;11.73;;;;;;;6.26;57.85;96665.16;6075124;23;20204;-80
2022/03/27 06:25:14;;;;;;;22.33;12.70;;;;;;;6.44;57.18;96679.50;6075324;23;20189;-81
2022/03/27 06:27:39;;;;;;;23.97;11.87;;;;;;;6.47;57.33;96673.34;6052378;23;20161;-81
2022/03/27 06:30:10;;;;;;;23.33;12.60;;;;;;;6.60;57.19;96674.22;6048488;23;20255;-81
2022/03/27 06:32:36;;;;;;;21.97;11.43;;;;;;;6.78;56.70;96677.41;6098407;23;20145;-80
2022/03/27 06:35:03;;;;;;;19.43;11.70;;;;;;;6.93;56.37;96671.28;6096626;23;20187;-79
2022/03/27 06:37:29;;;;;;;20.97;11.80;;;;;;;7.12;55.70;96683.00;6077579;23;20215;-81
2022/03/27 06:39:54;;;;;;;27.47;12.37;;;;;;;7.22;55.11;96674.56;6075935;23;20503;-80
2022/03/27 06:42:20;;;;;;;28.47;11.60;;;;;;;7.27;55.35;96684.63;6051433;23;20168;-80
2022/03/27 06:44:46;;;;;;;23.60;11.67;;;;;;;7.37;55.36;96680.50;6101766;23;20638;-81
2022/03/27 06:47:11;;;;;;;23.40;11.90;;;;;;;7.41;55.22;96684.53;6076664;23;20156;-80
2022/03/27 06:49:36;;;;;;;21.37;11.23;;;;;;;7.55;55.30;96681.88;6077462;23;20637;-81
2022/03/27 06:52:02;;;;;;;23.00;12.13;;;;;;;7.67;55.02;96683.63;6051782;23;20167;-79
2022/03/27 06:54:29;;;;;;;23.07;13.23;;;;;;;7.77;54.95;96688.19;6052121;23;20263;-80
2022/03/27 06:56:55;;;;;;;22.00;11.90;;;;;;;7.86;54.88;96691.00;6077099;23;20224;-81
2022/03/27 06:59:20;;;;;;;23.53;11.50;;;;;;;8.01;54.03;96694.31;6075898;23;20173;-80
2022/03/27 07:04:29;;;;;;;20.13;12.07;;;;;;;8.17;53.94;96684.56;6100736;23;20197;-80
2022/03/27 07:06:54;;;;;;;20.33;11.33;;;;;;;8.21;54.18;96683.41;6075453;23;20157;-80
2022/03/27 07:09:20;;;;;;;19.80;11.60;;;;;;;8.37;54.32;96685.00;6076392;23;20153;-80
2022/03/27 07:11:47;;;;;;;22.13;11.63;;;;;;;8.42;53.16;96690.69;6073696;23;20160;-81
2022/03/27 07:14:12;;;;;;;23.00;12.13;;;;;;;8.39;53.23;96683.97;6074545;23;20176;-80
2022/03/27 07:16:38;;;;;;;20.90;12.20;;;;;;;8.56;53.01;96684.53;6096637;23;20243;-81
2022/03/27 07:19:04;;;;;;;22.03;11.93;;;;;;;8.59;53.16;96690.34;6075148;23;20164;-80
2022/03/27 07:21:29;;;;;;;20.73;13.07;;;;;;;8.71;52.97;96683.47;6078786;23;20160;-80
2022/03/27 07:23:54;;;;;;;25.40;11.47;;;;;;;8.79;52.27;96687.16;6053704;23;20453;-81
2022/03/27 07:26:20;;;;;;;19.83;11.90;;;;;;;8.84;52.24;96681.66;6045841;23;20200;-79
2022/03/27 07:28:45;;;;;;;18.43;11.60;;;;;;;8.91;52.98;96690.63;6045709;23;20156;-80
2022/03/27 07:31:11;;;;;;;23.33;11.70;;;;;;;9.00;52.54;96683.97;6077599;23;20200;-79
2022/03/27 07:33:37;;;;;;;21.83;11.63;;;;;;;9.07;52.90;96685.19;6093092;23;20551;-78
2022/03/27 07:36:03;;;;;;;22.93;10.77;;;;;;;9.27;52.83;96694.09;6093617;23;20176;-78
2022/03/27 07:38:28;;;;;;;22.03;13.03;;;;;;;9.26;51.58;96693.28;6093517;23;20167;-78
2022/03/27 07:40:54;;;;;;;20.50;12.27;;;;;;;9.44;51.60;96692.88;6077743;23;20223;-79
2022/03/27 07:43:21;;;;;;;19.77;11.13;;;;;;;9.55;51.18;96691.16;6082059;23;20164;-78
2022/03/27 07:45:46;;;;;;;23.40;13.17;;;;;;;9.64;51.18;96689.66;6113132;23;20172;-78
2022/03/27 07:48:11;;;;;;;20.87;13.27;;;;;;;9.75;50.35;96692.28;6086887;23;20253;-78
2022/03/27 07:50:37;;;;;;;23.30;12.50;;;;;;;9.77;50.80;96695.56;6087787;23;20237;-79
2022/03/27 07:53:04;;;;;;;20.47;11.47;;;;;;;9.88;51.41;96693.00;6133645;23;20172;-78
2022/03/27 07:55:29;;;;;;;23.47;12.40;;;;;;;9.88;50.45;96694.75;6109907;23;20855;-78
2022/03/27 07:57:56;;;;;;;21.00;12.30;;;;;;;10.00;50.33;96690.44;6109083;23;20193;-81
2022/03/27 08:00:21;;;;;;;26.10;12.40;;;;;;;10.06;50.50;96684.75;6114506;23;20141;-78
2022/03/27 08:02:47;;;;;;;21.80;12.60;;;;;;;10.15;50.21;96681.47;6094436;23;20144;-79
2022/03/27 08:05:12;;;;;;;19.83;12.93;;;;;;;10.23;50.26;96684.34;6119048;23;20228;-80
2022/03/27 08:07:38;;;;;;;22.00;12.33;;;;;;;10.37;50.35;96693.66;6115981;23;20171;-80
2022/03/27 08:10:04;;;;;;;21.00;12.63;;;;;;;10.37;49.80;96689.31;6144190;23;20157;-80
2022/03/27 08:12:29;;;;;;;20.43;12.40;;;;;;;10.35;48.74;96696.41;6116682;23;20152;-80
2022/03/27 08:14:55;;;;;;;18.20;12.27;;;;;;;10.33;48.50;96698.25;6117321;23;20220;-80
2022/03/27 08:17:23;;;;;;;23.03;12.27;;;;;;;10.24;48.89;96696.38;6095353;23;20163;-80
2022/03/27 08:19:49;;;;;;;22.33;12.53;;;;;;;10.31;48.94;96700.16;6117872;23;20161;-80
2022/03/27 08:22:15;;;;;;;21.30;12.50;;;;;;;10.38;49.09;96696.16;6092951;23;20152;-79
2022/03/27 08:24:40;;;;;;;20.93;12.73;;;;;;;10.36;48.39;96705.84;6117895;23;20177;-81
2022/03/27 08:27:08;;;;;;;19.97;12.13;;;;;;;10.45;48.81;96706.88;6081343;23;20160;-82
2022/03/27 08:29:35;;;;;;;21.07;12.37;;;;;;;10.51;48.29;96714.19;6079216;23;20160;-83
2022/03/27 08:32:03;;;;;;;20.37;12.03;;;;;;;10.56;48.13;96709.47;6074693;23;20264;-81
2022/03/27 08:34:30;;;;;;;22.97;12.87;;;;;;;10.52;47.87;96709.84;6078093;23;20196;-82
2022/03/27 08:36:57;;;;;;;22.30;11.97;;;;;;;10.68;47.87;96712.88;6105026;23;20164;-82
2022/03/27 08:39:23;;;;;;;20.87;12.00;;;;;;;10.90;47.26;96709.44;6136592;23;20169;-80
2022/03/27 08:41:51;;;;;;;25.07;12.70;;;;;;;11.05;48.50;96716.84;6138942;23;20153;-80
2022/03/27 08:44:18;;;;;;;20.67;12.50;;;;;;;11.10;47.32;96713.06;6110641;23;20522;-81
2022/03/27 08:46:45;;;;;;;25.43;12.27;;;;;;;11.27;47.10;96715.94;6079507;23;20156;-80
2022/03/27 08:49:37;;;;;;;23.07;12.67;;;;;;;11.29;45.56;96715.81;6104957;23;20169;-80
2022/03/27 08:52:09;;;;;;;21.57;12.10;;;;;;;11.35;46.46;96720.53;6101491;23;20152;-82
2022/03/27 08:54:40;;;;;;;20.43;12.33;;;;;;;11.38;47.40;96716.84;6080540;23;20729;-80
2022/03/27 08:57:13;;;;;;;23.87;12.20;;;;;;;11.58;46.54;96716.91;6104689;23;20161;-81
2022/03/27 08:59:39;;;;;;;21.50;11.87;;;;;;;11.70;45.76;96717.66;6105797;23;20149;-80
2022/03/27 09:02:04;;;;;;;20.90;12.73;;;;;;;11.89;45.61;96717.84;6080182;23;20199;-81
2022/03/27 09:04:31;;;;;;;25.10;12.43;;;;;;;11.96;46.08;96718.16;6102559;23;20179;-78
2022/03/27 09:06:56;;;;;;;23.50;12.30;;;;;;;12.13;46.25;96727.16;6105246;23;20153;-80
2022/03/27 09:09:21;;;;;;;24.37;12.70;;;;;;;12.10;45.95;96725.66;6105976;23;20182;-79
2022/03/27 09:11:47;;;;;;;20.33;11.97;;;;;;;12.25;43.87;96723.53;6070774;23;20163;-80
2022/03/27 09:14:14;;;;;;;22.83;13.07;;;;;;;12.42;44.20;96722.09;6095796;23;20650;-80
2022/03/27 09:16:59;;;;;;;24.43;12.30;;;;;;;12.56;44.27;96726.97;6071413;23;20612;-80
2022/03/27 09:19:51;;;;;;;23.60;12.63;;;;;;;12.70;44.18;96734.41;6094885;23;20163;-79
2022/03/27 09:22:21;;;;;;;19.87;12.23;;;;;;;12.63;42.19;96733.31;6090877;23;20172;-79
2022/03/27 09:24:48;;;;;;;23.77;12.53;;;;;;;12.71;42.00;96730.84;6094728;23;20648;-79
2022/03/27 09:27:14;;;;;;;23.50;12.13;;;;;;;12.76;42.80;96739.09;6119965;23;20157;-80
2022/03/27 09:30:09;;;;;;;21.00;12.40;;;;;;;12.85;41.87;96736.66;6095107;23;20153;-80
2022/03/27 09:32:36;;;;;;;23.10;12.97;;;;;;;12.98;42.49;96738.06;6094068;23;20168;-79
2022/03/27 09:35:08;;;;;;;21.23;12.27;;;;;;;12.95;41.42;96732.31;6095550;23;20204;-80
2022/03/27 09:37:39;;;;;;;22.73;11.43;;;;;;;13.16;41.30;96725.19;6072973;23;20545;-80
2022/03/27 09:40:06;;;;;;;22.70;13.10;;;;;;;13.22;41.19;96735.13;6074762;23;20584;-80
2022/03/27 09:42:32;;;;;;;25.30;12.67;;;;;;;13.22;40.82;96727.31;6084357;23;20188;-81
2022/03/27 09:45:13;;;;;;;20.10;12.00;;;;;;;13.35;40.85;96721.03;6085056;23;20628;-81
2022/03/27 09:47:39;;;;;;;20.93;12.20;;;;;;;13.50;40.59;96725.69;6111762;23;20157;-80
2022/03/27 09:50:05;;;;;;;24.03;12.63;;;;;;;13.40;39.02;96724.03;6083835;23;20167;-80
2022/03/27 09:52:33;;;;;;;24.37;11.43;;;;;;;13.61;39.65;96719.53;6108632;23;20165;-81
2022/03/27 09:55:05;;;;;;;22.60;11.13;;;;;;;13.56;38.51;96724.31;6086122;23;20173;-81
2022/03/27 09:57:33;;;;;;;22.67;11.73;;;;;;;13.66;39.41;96717.31;6085284;23;20157;-79
2022/03/27 10:00:14;;;;;;;22.83;11.23;;;;;;;13.62;37.79;96715.13;6084733;23;20670;-79
2022/03/27 10:02:44;;;;;;;24.27;11.40;;;;;;;13.63;38.19;96711.56;6108147;23;20160;-80
2022/03/27 10:05:14;;;;;;;22.50;12.40;;;;;;;13.79;37.96;96712.66;6107545;23;20180;-81
2022/03/27 10:07:44;;;;;;;21.93;12.87;;;;;;;13.89;38.93;96713.44;6083716;23;20187;-80
2022/03/27 10:10:15;;;;;;;18.87;11.40;;;;;;;14.02;39.67;96702.69;6082062;23;20160;-81
2022/03/27 10:12:42;;;;;;;21.10;11.47;;;;;;;14.01;38.18;96713.28;6106817;23;20469;-81
2022/03/27 10:15:13;;;;;;;22.73;11.80;;;;;;;14.04;38.33;96699.94;6084292;23;20185;-80
2022/03/27 10:17:41;;;;;;;20.27;11.70;;;;;;;13.92;38.44;96701.91;6107441;23;20712;-80
2022/03/27 10:20:15;;;;;;;20.17;11.13;;;;;;;14.20;39.26;96700.19;6107544;23;20184;-81
2022/03/27 10:22:48;;;;;;;19.17;11.80;;;;;;;14.26;38.23;96691.78;6079673;23;20388;-82
2022/03/27 10:25:17;;;;;;;19.70;11.40;;;;;;;14.45;38.31;96694.34;6104174;23;20231;-80
2022/03/27 10:27:45;;;;;;;19.80;10.60;;;;;;;14.54;38.64;96703.13;6083415;23;20164;-81
2022/03/27 10:30:12;;;;;;;18.03;10.70;;;;;;;14.42;37.46;96693.81;6083054;23;20239;-82
2022/03/27 10:32:39;;;;;;;16.50;10.13;;;;;;;14.30;37.16;96694.91;6101854;23;20187;-81
2022/03/27 10:35:09;;;;;;;17.30;10.67;;;;;;;14.26;37.45;96689.16;6107389;23;20173;-80
2022/03/27 10:37:44;;;;;;;20.57;11.77;;;;;;;14.30;37.01;96690.53;6084570;23;20161;-81
2022/03/27 10:40:18;;;;;;;20.93;11.80;;;;;;;14.35;38.76;96688.31;6108610;23;20148;-81
2022/03/27 10:42:52;;;;;;;26.13;11.83;;;;;;;14.38;37.28;96687.19;6082861;23;20152;-81
2022/03/27 10:45:19;;;;;;;16.47;10.70;;;;;;;14.48;36.05;96688.00;6082013;23;20176;-80
2022/03/27 10:48:08;;;;;;;23.00;11.47;;;;;;;14.50;36.36;96688.72;6083919;23;20164;-80
2022/03/27 10:50:44;;;;;;;20.83;11.33;;;;;;;14.50;36.48;96683.47;6107766;23;20157;-79
2022/03/27 10:53:10;;;;;;;19.67;11.70;;;;;;;14.44;36.69;96679.63;6082208;23;20191;-80
2022/03/27 10:55:42;;;;;;;27.30;12.80;;;;;;;14.52;38.37;96680.72;6106445;23;20196;-79
2022/03/27 10:58:39;;;;;;;27.70;13.17;;;;;;;14.50;37.25;96675.66;6082462;23;20163;-80
2022/03/27 11:01:09;;;;;;;19.70;10.53;;;;;;;14.71;36.64;96683.25;6079690;23;20172;-79
2022/03/27 11:03:49;;;;;;;22.83;11.60;;;;;;;14.82;35.60;96680.41;6097347;23;20156;-79
2022/03/27 11:06:28;;;;;;;18.90;11.53;;;;;;;14.86;35.52;96681.78;6096243;23;20512;-79
2022/03/27 11:08:56;;;;;;;17.03;10.53;;;;;;;14.80;35.14;96671.91;6099057;23;20538;-79
2022/03/27 11:11:33;;;;;;;20.00;11.30;;;;;;;14.82;35.11;96690.06;6095650;23;20156;-79
2022/03/27 11:13:59;;;;;;;18.80;12.20;;;;;;;14.90;35.39;96679.69;6098282;23;20180;-79
2022/03/27 11:16:25;;;;;;;20.67;12.30;;;;;;;14.91;36.18;96681.34;6069914;23;20181;-79
2022/03/27 11:18:50;;;;;;;22.73;12.27;;;;;;;14.94;35.21;96676.66;6121122;23;20161;-79
2022/03/27 11:21:27;;;;;;;18.53;11.50;;;;;;;14.90;34.40;96677.06;6071785;23;20164;-78
2022/03/27 11:23:55;;;;;;;20.07;12.00;;;;;;;14.92;33.43;96665.50;6097468;23;20247;-78
2022/03/27 11:26:20;;;;;;;20.00;11.83;;;;;;;14.97;34.82;96668.50;6096252;23;20172;-77